sensor_id;sensor_type;location;lat;lon;timestamp;pressure;altitude;pressure_sealevel;temperature;humidity
52975;BME280;38839;45.186;5.720;2023-09-19T00:01:28;99291.13;;;16.74;100.00
52975;BME280;38839;45.186;5.720;2023-09-19T00:03:55;99283.19;;;16.76;100.00
52975;BME280;38839;45.186;5.720;2023-09-19T00:06:22;99283.94;;;16.79;100.00
52975;BME280;38839;45.186;5.720;2023-09-19T00:08:51;99281.09;;;16.90;100.00
52975;BME280;38839;45.186;5.720;2023-09-19T00:11:17;99293.53;;;16.83;100.00
52975;BME280;38839;45.186;5.720;2023-09-19T00:13:43;99291.91;;;16.78;100.00
52975;BME280;38839;45.186;5.720;2023-09-19T00:16:11;99297.28;;;16.73;100.00
52975;BME280;38839;45.186;5.720;2023-09-19T00:18:38;99304.50;;;16.65;100.00
52975;BME280;38839;45.186;5.720;2023-09-19T00:21:03;99292.25;;;16.64;100.00
52975;BME280;38839;45.186;5.720;2023-09-19T00:23:32;99302.81;;;16.64;100.00
52975;BME280;38839;45.186;5.720;2023-09-19T00:26:01;99292.31;;;16.61;100.00
52975;BME280;38839;45.186;5.720;2023-09-19T00:28:27;99293.81;;;16.71;100.00
52975;BME280;38839;45.186;5.720;2023-09-19T00:30:53;99297.00;;;16.85;100.00
52975;BME280;38839;45.186;5.720;2023-09-19T00:33:20;99296.13;;;16.85;100.00
52975;BME280;38839;45.186;5.720;2023-09-19T00:35:49;99299.91;;;16.73;100.00
52975;BME280;38839;45.186;5.720;2023-09-19T00:38:15;99296.50;;;16.69;100.00
52975;BME280;38839;45.186;5.720;2023-09-19T00:40:46;99289.53;;;16.67;100.00
52975;BME280;38839;45.186;5.720;2023-09-19T00:43:11;99291.31;;;16.66;100.00
52975;BME280;38839;45.186;5.720;2023-09-19T00:45:37;99299.91;;;16.73;100.00
52975;BME280;38839;45.186;5.720;2023-09-19T00:48:08;99297.91;;;16.84;100.00
52975;BME280;38839;45.186;5.720;2023-09-19T00:50:34;99296.16;;;16.83;100.00
52975;BME280;38839;45.186;5.720;2023-09-19T00:53:00;99293.53;;;16.83;100.00
52975;BME280;38839;45.186;5.720;2023-09-19T00:55:26;99287.63;;;16.74;100.00
52975;BME280;38839;45.186;5.720;2023-09-19T00:57:56;99289.44;;;16.72;100.00
52975;BME280;38839;45.186;5.720;2023-09-19T01:00:21;99284.31;;;16.65;100.00
52975;BME280;38839;45.186;5.720;2023-09-19T01:02:48;99287.72;;;16.69;100.00
52975;BME280;38839;45.186;5.720;2023-09-19T01:05:13;99295.34;;;16.81;100.00
52975;BME280;38839;45.186;5.720;2023-09-19T01:07:39;99287.25;;;16.89;100.00
52975;BME280;38839;45.186;5.720;2023-09-19T01:10:12;99285.41;;;16.93;100.00
52975;BME280;38839;45.186;5.720;2023-09-19T01:23:39;99282.47;;;17.03;100.00
52975;BME280;38839;45.186;5.720;2023-09-19T01:31:52;99281.19;;;16.85;100.00
52975;BME280;38839;45.186;5.720;2023-09-19T01:34:19;99283.91;;;16.82;100.00
52975;BME280;38839;45.186;5.720;2023-09-19T01:36:45;99288.03;;;16.93;100.00
52975;BME280;38839;45.186;5.720;2023-09-19T01:39:11;99291.28;;;17.02;100.00
52975;BME280;38839;45.186;5.720;2023-09-19T01:41:47;99289.41;;;17.06;100.00
52975;BME280;38839;45.186;5.720;2023-09-19T01:44:47;99295.50;;;17.08;100.00
52975;BME280;38839;45.186;5.720;2023-09-19T01:47:36;99287.53;;;17.11;100.00
52975;BME280;38839;45.186;5.720;2023-09-19T01:50:38;99279.81;;;17.03;100.00
52975;BME280;38839;45.186;5.720;2023-09-19T01:53:26;99280.63;;;17.07;100.00
52975;BME280;38839;45.186;5.720;2023-09-19T01:55:57;99278.81;;;17.09;100.00
52975;BME280;38839;45.186;5.720;2023-09-19T01:58:51;99278.69;;;17.12;100.00
52975;BME280;38839;45.186;5.720;2023-09-19T02:01:22;99273.50;;;17.11;100.00
52975;BME280;38839;45.186;5.720;2023-09-19T02:03:50;99264.66;;;17.12;100.00
52975;BME280;38839;45.186;5.720;2023-09-19T02:06:16;99261.13;;;17.13;100.00
52975;BME280;38839;45.186;5.720;2023-09-19T02:08:42;99268.88;;;17.19;100.00
52975;BME280;38839;45.186;5.720;2023-09-19T02:11:08;99275.41;;;17.04;100.00
52975;BME280;38839;45.186;5.720;2023-09-19T02:13:33;99277.53;;;16.91;100.00
52975;BME280;38839;45.186;5.720;2023-09-19T02:15:59;99282.06;;;16.86;100.00
52975;BME280;38839;45.186;5.720;2023-09-19T02:18:25;99272.59;;;16.77;100.00
52975;BME280;38839;45.186;5.720;2023-09-19T02:20:53;99276.00;;;16.82;100.00
52975;BME280;38839;45.186;5.720;2023-09-19T02:23:20;99281.91;;;16.92;100.00
52975;BME280;38839;45.186;5.720;2023-09-19T02:25:55;99279.84;;;17.02;100.00
52975;BME280;38839;45.186;5.720;2023-09-19T02:28:26;99271.94;;;17.02;100.00
52975;BME280;38839;45.186;5.720;2023-09-19T02:30:55;99276.34;;;17.03;100.00
52975;BME280;38839;45.186;5.720;2023-09-19T02:33:21;99272.91;;;16.99;100.00
52975;BME280;38839;45.186;5.720;2023-09-19T02:35:46;99280.69;;;17.04;100.00
52975;BME280;38839;45.186;5.720;2023-09-19T02:38:12;99285.09;;;17.03;100.00
52975;BME280;38839;45.186;5.720;2023-09-19T02:40:38;99286.84;;;17.04;100.00
52975;BME280;38839;45.186;5.720;2023-09-19T02:43:03;99284.13;;;17.06;100.00
52975;BME280;38839;45.186;5.720;2023-09-19T02:45:30;99282.50;;;17.02;100.00
52975;BME280;38839;45.186;5.720;2023-09-19T02:47:56;99279.19;;;16.94;100.00
52975;BME280;38839;45.186;5.720;2023-09-19T02:50:22;99281.94;;;16.91;100.00
52975;BME280;38839;45.186;5.720;2023-09-19T02:52:48;99275.69;;;16.95;100.00
52975;BME280;38839;45.186;5.720;2023-09-19T02:55:15;99278.38;;;16.92;100.00
52975;BME280;38839;45.186;5.720;2023-09-19T02:57:53;99272.38;;;16.86;100.00
52975;BME280;38839;45.186;5.720;2023-09-19T03:00:22;99272.38;;;16.86;100.00
52975;BME280;38839;45.186;5.720;2023-09-19T03:02:54;99269.81;;;16.83;100.00
52975;BME280;38839;45.186;5.720;2023-09-19T03:05:21;99265.44;;;16.84;100.00
52975;BME280;38839;45.186;5.720;2023-09-19T03:07:47;99270.75;;;16.82;100.00
52975;BME280;38839;45.186;5.720;2023-09-19T03:10:16;99267.16;;;16.85;100.00
52975;BME280;38839;45.186;5.720;2023-09-19T03:12:41;99267.97;;;16.87;100.00
52975;BME280;38839;45.186;5.720;2023-09-19T03:15:07;99266.09;;;16.92;100.00
52975;BME280;38839;45.186;5.720;2023-09-19T03:17:34;99265.22;;;16.92;100.00
52975;BME280;38839;45.186;5.720;2023-09-19T03:19:59;99270.44;;;16.93;100.00
52975;BME280;38839;45.186;5.720;2023-09-19T03:22:26;99271.25;;;16.95;100.00
52975;BME280;38839;45.186;5.720;2023-09-19T03:24:52;99270.41;;;16.95;100.00
52975;BME280;38839;45.186;5.720;2023-09-19T03:27:18;99270.31;;;16.98;100.00
52975;BME280;38839;45.186;5.720;2023-09-19T03:29:43;99272.94;;;16.98;100.00
52975;BME280;38839;45.186;5.720;2023-09-19T03:32:09;99270.31;;;16.98;100.00
52975;BME280;38839;45.186;5.720;2023-09-19T03:34:38;99278.16;;;17.01;100.00
52975;BME280;38839;45.186;5.720;2023-09-19T03:37:06;99281.56;;;17.04;100.00
52975;BME280;38839;45.186;5.720;2023-09-19T03:39:32;99283.38;;;17.02;100.00
52975;BME280;38839;45.186;5.720;2023-09-19T03:41:57;99278.97;;;17.03;100.00
52975;BME280;38839;45.186;5.720;2023-09-19T03:44:23;99278.03;;;17.04;100.00
52975;BME280;38839;45.186;5.720;2023-09-19T03:46:48;99284.13;;;17.06;100.00
52975;BME280;38839;45.186;5.720;2023-09-19T03:49:13;99286.72;;;17.09;100.00
52975;BME280;38839;45.186;5.720;2023-09-19T03:51:39;99284.97;;;17.08;100.00
52975;BME280;38839;45.186;5.720;2023-09-19T03:54:07;99282.09;;;17.17;100.00
52975;BME280;38839;45.186;5.720;2023-09-19T03:56:32;99287.19;;;17.23;100.00
52975;BME280;38839;45.186;5.720;2023-09-19T03:58:58;99282.09;;;17.17;100.00
52975;BME280;38839;45.186;5.720;2023-09-19T04:01:23;99288.59;;;17.04;100.00
52975;BME280;38839;45.186;5.720;2023-09-19T04:03:49;99281.19;;;16.85;100.00
52975;BME280;38839;45.186;5.720;2023-09-19T04:06:17;99286.59;;;16.79;100.00
52975;BME280;38839;45.186;5.720;2023-09-19T04:08:43;99286.91;;;16.67;100.00
52975;BME280;38839;45.186;5.720;2023-09-19T04:11:09;99293.09;;;16.66;100.00
52975;BME280;38839;45.186;5.720;2023-09-19T04:13:35;99296.28;;;16.77;100.00
52975;BME280;38839;45.186;5.720;2023-09-19T04:16:01;99292.47;;;16.91;100.00
52975;BME280;38839;45.186;5.720;2023-09-19T04:18:28;99300.22;;;16.97;100.00
52975;BME280;38839;45.186;5.720;2023-09-19T04:20:56;99296.94;;;16.88;100.00
52975;BME280;38839;45.186;5.720;2023-09-19T04:23:21;99295.84;;;16.96;100.00
52975;BME280;38839;45.186;5.720;2023-09-19T04:25:47;99301.28;;;16.89;100.00
52975;BME280;38839;45.186;5.720;2023-09-19T04:28:13;99293.13;;;16.99;100.00
52975;BME280;38839;45.186;5.720;2023-09-19T04:30:39;99298.75;;;16.86;100.00
52975;BME280;38839;45.186;5.720;2023-09-19T04:33:07;99292.66;;;16.83;100.00
52975;BME280;38839;45.186;5.720;2023-09-19T04:35:33;99296.22;;;16.80;100.00
52975;BME280;38839;45.186;5.720;2023-09-19T04:37:59;99296.81;;;16.92;100.00
52975;BME280;38839;45.186;5.720;2023-09-19T04:40:24;99305.34;;;17.01;100.00
52975;BME280;38839;45.186;5.720;2023-09-19T04:42:55;99302.56;;;17.07;100.00
52975;BME280;38839;45.186;5.720;2023-09-19T04:45:26;99299.69;;;17.17;100.00
52975;BME280;38839;45.186;5.720;2023-09-19T04:47:52;99310.88;;;17.25;100.00
52975;BME280;38839;45.186;5.720;2023-09-19T04:50:18;99308.09;;;17.29;100.00
52975;BME280;38839;45.186;5.720;2023-09-19T04:52:44;99302.81;;;17.31;100.00
52975;BME280;38839;45.186;5.720;2023-09-19T04:55:11;99308.91;;;17.33;100.00
52975;BME280;38839;45.186;5.720;2023-09-19T04:57:41;99313.38;;;17.29;100.00
52975;BME280;38839;45.186;5.720;2023-09-19T05:00:07;99314.41;;;17.24;100.00
52975;BME280;38839;45.186;5.720;2023-09-19T05:02:37;99308.28;;;17.23;100.00
52975;BME280;38839;45.186;5.720;2023-09-19T05:05:03;99329.38;;;17.23;100.00
52975;BME280;38839;45.186;5.720;2023-09-19T05:07:30;99318.81;;;17.23;100.00
52975;BME280;38839;45.186;5.720;2023-09-19T05:09:55;99317.97;;;17.23;100.00
52975;BME280;38839;45.186;5.720;2023-09-19T05:12:21;99329.44;;;17.20;100.00
52975;BME280;38839;45.186;5.720;2023-09-19T05:14:46;99335.59;;;17.21;100.00
52975;BME280;38839;45.186;5.720;2023-09-19T05:17:13;99337.31;;;17.22;100.00
52975;BME280;38839;45.186;5.720;2023-09-19T05:19:39;99337.31;;;17.22;100.00
52975;BME280;38839;45.186;5.720;2023-09-19T05:22:04;99342.63;;;17.20;100.00
52975;BME280;38839;45.186;5.720;2023-09-19T05:24:30;99336.53;;;17.18;100.00
52975;BME280;38839;45.186;5.720;2023-09-19T05:26:56;99346.06;;;17.24;100.00
52975;BME280;38839;45.186;5.720;2023-09-19T05:29:22;99344.34;;;17.23;100.00
52975;BME280;38839;45.186;5.720;2023-09-19T05:31:47;99344.28;;;17.24;100.00
52975;BME280;38839;45.186;5.720;2023-09-19T05:34:14;99352.91;;;17.31;100.00
52975;BME280;38839;45.186;5.720;2023-09-19T05:36:40;99350.47;;;17.23;100.00
52975;BME280;38839;45.186;5.720;2023-09-19T05:39:05;99346.34;;;17.13;100.00
52975;BME280;38839;45.186;5.720;2023-09-19T05:41:34;99355.13;;;17.14;100.00
52975;BME280;38839;45.186;5.720;2023-09-19T05:44:02;99352.50;;;17.12;100.00
52975;BME280;38839;45.186;5.720;2023-09-19T05:46:27;99347.06;;;17.18;100.00
52975;BME280;38839;45.186;5.720;2023-09-19T05:48:55;99351.47;;;17.19;100.00
52975;BME280;38839;45.186;5.720;2023-09-19T05:51:22;99357.44;;;17.24;100.00
52975;BME280;38839;45.186;5.720;2023-09-19T05:53:47;99346.84;;;17.27;100.00
52975;BME280;38839;45.186;5.720;2023-09-19T05:56:14;99362.66;;;17.27;100.00
52975;BME280;38839;45.186;5.720;2023-09-19T05:58:40;99370.28;;;17.38;100.00
52975;BME280;38839;45.186;5.720;2023-09-19T06:01:09;99367.66;;;17.37;100.00
52975;BME280;38839;45.186;5.720;2023-09-19T06:03:35;99368.50;;;17.39;100.00
52975;BME280;38839;45.186;5.720;2023-09-19T06:06:01;99376.41;;;17.39;100.00
52975;BME280;38839;45.186;5.720;2023-09-19T06:08:27;99373.59;;;17.45;100.00
52975;BME280;38839;45.186;5.720;2023-09-19T06:10:53;99381.59;;;17.42;100.00
52975;BME280;38839;45.186;5.720;2023-09-19T06:13:19;99383.44;;;17.40;100.00
52975;BME280;38839;45.186;5.720;2023-09-19T06:15:45;99388.03;;;17.32;100.00
52975;BME280;38839;45.186;5.720;2023-09-19T06:18:12;99385.31;;;17.35;100.00
52975;BME280;38839;45.186;5.720;2023-09-19T06:20:42;99393.28;;;17.33;100.00
52975;BME280;38839;45.186;5.720;2023-09-19T06:23:09;99393.13;;;17.39;100.00
52975;BME280;38839;45.186;5.720;2023-09-19T06:25:35;99389.66;;;17.37;100.00
52975;BME280;38839;45.186;5.720;2023-09-19T06:28:00;99386.13;;;17.37;100.00
52975;BME280;38839;45.186;5.720;2023-09-19T06:30:29;99387.78;;;17.41;100.00
52975;BME280;38839;45.186;5.720;2023-09-19T06:32:59;99393.00;;;17.42;100.00
52975;BME280;38839;45.186;5.720;2023-09-19T06:35:26;99395.66;;;17.42;100.00
52975;BME280;38839;45.186;5.720;2023-09-19T06:37:51;99395.28;;;17.56;100.00
52975;BME280;38839;45.186;5.720;2023-09-19T06:40:18;99400.72;;;17.50;100.00
52975;BME280;38839;45.186;5.720;2023-09-19T06:42:46;99398.22;;;17.45;100.00
52975;BME280;38839;45.186;5.720;2023-09-19T06:45:13;99395.63;;;17.44;100.00
52975;BME280;38839;45.186;5.720;2023-09-19T06:47:43;99397.16;;;17.51;100.00
52975;BME280;38839;45.186;5.720;2023-09-19T06:50:09;99400.72;;;17.50;100.00
52975;BME280;38839;45.186;5.720;2023-09-19T06:52:42;99399.03;;;17.47;100.00
52975;BME280;38839;45.186;5.720;2023-09-19T06:55:07;99401.69;;;17.47;100.00
52975;BME280;38839;45.186;5.720;2023-09-19T06:57:34;99404.19;;;17.52;100.00
52975;BME280;38839;45.186;5.720;2023-09-19T07:00:00;99408.97;;;17.38;100.00
52975;BME280;38839;45.186;5.720;2023-09-19T07:02:27;99404.69;;;17.34;100.00
52975;BME280;38839;45.186;5.720;2023-09-19T07:04:52;99408.31;;;17.29;100.00
52975;BME280;38839;45.186;5.720;2023-09-19T07:07:17;99407.34;;;17.32;100.00
52975;BME280;38839;45.186;5.720;2023-09-19T07:09:43;99404.88;;;17.26;100.00
52975;BME280;38839;45.186;5.720;2023-09-19T07:12:08;99402.09;;;17.32;100.00
52975;BME280;38839;45.186;5.720;2023-09-19T07:14:34;99407.28;;;17.35;100.00
52975;BME280;38839;45.186;5.720;2023-09-19T07:16:59;99405.47;;;17.37;100.00
52975;BME280;38839;45.186;5.720;2023-09-19T07:19:28;99406.22;;;17.41;100.00
52975;BME280;38839;45.186;5.720;2023-09-19T07:21:56;99414.03;;;17.45;100.00
52975;BME280;38839;45.186;5.720;2023-09-19T07:24:24;99419.22;;;17.48;100.00
52975;BME280;38839;45.186;5.720;2023-09-19T07:26:51;99421.72;;;17.53;100.00
52975;BME280;38839;45.186;5.720;2023-09-19T07:29:17;99425.13;;;17.58;100.00
52975;BME280;38839;45.186;5.720;2023-09-19T07:31:42;99414.22;;;17.70;100.00
52975;BME280;38839;45.186;5.720;2023-09-19T07:34:09;99410.50;;;17.78;100.00
52975;BME280;38839;45.186;5.720;2023-09-19T07:36:35;99418.81;;;17.97;100.00
52975;BME280;38839;45.186;5.720;2023-09-19T07:39:02;99419.44;;;18.05;100.00
52975;BME280;38839;45.186;5.720;2023-09-19T07:41:32;99420.47;;;17.99;100.00
52975;BME280;38839;45.186;5.720;2023-09-19T07:43:57;99422.84;;;18.08;100.00
52975;BME280;38839;45.186;5.720;2023-09-19T07:46:23;99423.59;;;18.14;100.00
52975;BME280;38839;45.186;5.720;2023-09-19T07:48:49;99423.81;;;18.36;100.00
52975;BME280;38839;45.186;5.720;2023-09-19T07:51:15;99421.25;;;18.61;100.00
52975;BME280;38839;45.186;5.720;2023-09-19T07:53:41;99414.03;;;18.66;100.00
52975;BME280;38839;45.186;5.720;2023-09-19T07:56:09;99413.19;;;18.65;100.00
52975;BME280;38839;45.186;5.720;2023-09-19T07:58:35;99412.78;;;18.78;100.00
52975;BME280;38839;45.186;5.720;2023-09-19T08:01:09;99415.91;;;18.90;100.00
52975;BME280;38839;45.186;5.720;2023-09-19T08:03:36;99412.03;;;19.01;100.00
52975;BME280;38839;45.186;5.720;2023-09-19T08:06:06;99414.06;;;19.19;100.00
52975;BME280;38839;45.186;5.720;2023-09-19T08:08:32;99419.53;;;19.40;100.00
52975;BME280;38839;45.186;5.720;2023-09-19T08:10:59;99416.66;;;19.46;100.00
52975;BME280;38839;45.186;5.720;2023-09-19T08:13:25;99416.03;;;19.39;100.00
52975;BME280;38839;45.186;5.720;2023-09-19T08:15:51;99412.50;;;19.64;100.00
52975;BME280;38839;45.186;5.720;2023-09-19T08:18:18;99418.22;;;20.02;100.00
52975;BME280;38839;45.186;5.720;2023-09-19T08:20:49;99399.88;;;20.43;100.00
52975;BME280;38839;45.186;5.720;2023-09-19T08:23:15;99407.22;;;20.80;100.00
52975;BME280;38839;45.186;5.720;2023-09-19T08:25:43;99409.16;;;21.40;100.00
52975;BME280;38839;45.186;5.720;2023-09-19T08:28:08;99394.41;;;21.74;100.00
52975;BME280;38839;45.186;5.720;2023-09-19T08:30:37;99391.78;;;21.53;100.00
52975;BME280;38839;45.186;5.720;2023-09-19T08:33:06;99393.97;;;20.80;100.00
52975;BME280;38839;45.186;5.720;2023-09-19T08:35:33;99397.06;;;20.69;100.00
52975;BME280;38839;45.186;5.720;2023-09-19T08:38:00;99399.88;;;20.43;100.00
52975;BME280;38839;45.186;5.720;2023-09-19T08:40:30;99398.31;;;20.37;100.00
52975;BME280;38839;45.186;5.720;2023-09-19T08:42:59;99398.19;;;20.64;100.00
52975;BME280;38839;45.186;5.720;2023-09-19T08:45:26;99394.03;;;21.21;100.00
52975;BME280;38839;45.186;5.720;2023-09-19T08:50:41;99400.75;;;20.20;100.00
52975;BME280;38839;45.186;5.720;2023-09-19T08:53:11;99391.03;;;20.42;100.00
52975;BME280;38839;45.186;5.720;2023-09-19T08:55:40;99396.63;;;20.58;100.00
52975;BME280;38839;45.186;5.720;2023-09-19T08:58:10;99399.31;;;20.79;100.00
52975;BME280;38839;45.186;5.720;2023-09-19T09:00:36;99391.28;;;21.02;100.00
52975;BME280;38839;45.186;5.720;2023-09-19T09:03:03;99380.56;;;20.83;100.00
52975;BME280;38839;45.186;5.720;2023-09-19T09:05:32;99387.78;;;20.58;100.00
52975;BME280;38839;45.186;5.720;2023-09-19T09:07:58;99383.41;;;20.35;100.00
52975;BME280;38839;45.186;5.720;2023-09-19T09:10:24;99378.03;;;20.60;100.00
52975;BME280;38839;45.186;5.720;2023-09-19T09:12:51;99379.59;;;20.86;100.00
52975;BME280;38839;45.186;5.720;2023-09-19T09:15:19;99384.38;;;20.54;100.00
52975;BME280;38839;45.186;5.720;2023-09-19T09:17:50;99385.13;;;20.58;100.00
52975;BME280;38839;45.186;5.720;2023-09-19T09:25:06;99386.25;;;21.37;100.00
52975;BME280;38839;45.186;5.720;2023-09-19T09:27:31;99385.19;;;21.41;100.00
52975;BME280;38839;45.186;5.720;2023-09-19T09:29:58;99382.06;;;21.92;100.00
52975;BME280;38839;45.186;5.720;2023-09-19T09:32:30;99379.66;;;22.25;100.00
52975;BME280;38839;45.186;5.720;2023-09-19T09:35:00;99382.81;;;22.14;100.00
52975;BME280;38839;45.186;5.720;2023-09-19T09:37:26;99377.00;;;21.47;100.00
52975;BME280;38839;45.186;5.720;2023-09-19T09:40:02;99375.44;;;21.42;100.00
52975;BME280;38839;45.186;5.720;2023-09-19T09:42:40;99385.91;;;21.04;100.00
52975;BME280;38839;45.186;5.720;2023-09-19T09:47:50;99375.25;;;21.26;100.00
52975;BME280;38839;45.186;5.720;2023-09-19T09:50:31;99367.84;;;21.74;100.00
52975;BME280;38839;45.186;5.720;2023-09-19T09:56:00;99359.50;;;21.43;100.00
52975;BME280;38839;45.186;5.720;2023-09-19T09:58:26;99358.16;;;21.73;100.00
52975;BME280;38839;45.186;5.720;2023-09-19T10:00:58;99367.66;;;21.97;100.00
52975;BME280;38839;45.186;5.720;2023-09-19T10:03:36;99360.16;;;21.67;100.00
52975;BME280;38839;45.186;5.720;2023-09-19T10:06:12;99360.66;;;21.76;100.00
52975;BME280;38839;45.186;5.720;2023-09-19T10:09:07;99359.75;;;21.96;100.00
52975;BME280;38839;45.186;5.720;2023-09-19T10:12:07;99349.47;;;21.88;100.00
52975;BME280;38839;45.186;5.720;2023-09-19T10:14:38;99352.06;;;22.08;100.00
52975;BME280;38839;45.186;5.720;2023-09-19T10:17:05;99348.03;;;22.19;100.00
52975;BME280;38839;45.186;5.720;2023-09-19T10:19:42;99351.66;;;22.37;100.00
52975;BME280;38839;45.186;5.720;2023-09-19T10:22:12;99351.72;;;22.16;100.00
52975;BME280;38839;45.186;5.720;2023-09-19T10:24:40;99343.94;;;21.74;100.00
52975;BME280;38839;45.186;5.720;2023-09-19T10:27:07;99341.56;;;21.67;100.00
52975;BME280;38839;45.186;5.720;2023-09-19T10:29:36;99338.00;;;22.06;100.00
52975;BME280;38839;45.186;5.720;2023-09-19T10:32:05;99337.28;;;22.22;100.00
52975;BME280;38839;45.186;5.720;2023-09-19T10:34:35;99336.84;;;22.31;100.00
52975;BME280;38839;45.186;5.720;2023-09-19T10:37:02;99323.78;;;21.69;100.00
52975;BME280;38839;45.186;5.720;2023-09-19T10:39:35;99326.47;;;21.49;100.00
52975;BME280;38839;45.186;5.720;2023-09-19T10:42:06;99321.56;;;21.60;100.00
52975;BME280;38839;45.186;5.720;2023-09-19T10:44:37;99319.13;;;21.75;100.00
52975;BME280;38839;45.186;5.720;2023-09-19T10:47:05;99313.44;;;21.63;100.00
52975;BME280;38839;45.186;5.720;2023-09-19T10:49:32;99310.09;;;21.79;100.00
52975;BME280;38839;45.186;5.720;2023-09-19T10:51:59;99319.91;;;21.77;100.00
52975;BME280;38839;45.186;5.720;2023-09-19T10:54:30;99313.00;;;21.92;100.00
52975;BME280;38839;45.186;5.720;2023-09-19T10:56:58;99306.56;;;21.97;100.00
52975;BME280;38839;45.186;5.720;2023-09-19T10:59:25;99305.97;;;22.09;100.00
52975;BME280;38839;45.186;5.720;2023-09-19T11:01:55;99301.09;;;22.19;100.00
52975;BME280;38839;45.186;5.720;2023-09-19T11:09:56;99304.94;;;22.31;100.00
52975;BME280;38839;45.186;5.720;2023-09-19T11:15:01;99287.72;;;22.40;100.00
52975;BME280;38839;45.186;5.720;2023-09-19T11:17:39;99288.25;;;22.46;100.00
52975;BME280;38839;45.186;5.720;2023-09-19T11:30:40;99285.34;;;22.34;100.00
52975;BME280;38839;45.186;5.720;2023-09-19T11:33:25;99282.94;;;22.46;100.00
52975;BME280;38839;45.186;5.720;2023-09-19T11:36:13;99282.47;;;22.56;100.00
52975;BME280;38839;45.186;5.720;2023-09-19T11:46:32;99276.84;;;22.44;100.00
52975;BME280;38839;45.186;5.720;2023-09-19T11:49:08;99279.97;;;22.53;100.00
52975;BME280;38839;45.186;5.720;2023-09-19T11:51:41;99277.94;;;22.40;100.00
52975;BME280;38839;45.186;5.720;2023-09-19T11:54:11;99274.63;;;22.35;100.00
52975;BME280;38839;45.186;5.720;2023-09-19T11:56:54;99262.44;;;22.31;100.00
52975;BME280;38839;45.186;5.720;2023-09-19T11:59:24;99257.69;;;22.19;100.00
52975;BME280;38839;45.186;5.720;2023-09-19T12:01:54;99257.56;;;22.22;100.00
52975;BME280;38839;45.186;5.720;2023-09-19T12:04:43;99254.94;;;22.39;100.00
52975;BME280;38839;45.186;5.720;2023-09-19T12:07:11;99257.16;;;22.48;100.00
52975;BME280;38839;45.186;5.720;2023-09-19T12:09:48;99244.94;;;22.62;100.00
52975;BME280;38839;45.186;5.720;2023-09-19T12:14:53;99243.69;;;22.69;100.00
52975;BME280;38839;45.186;5.720;2023-09-19T12:17:19;99233.19;;;22.83;100.00
52975;BME280;38839;45.186;5.720;2023-09-19T12:19:56;99233.78;;;22.73;100.00
52975;BME280;38839;45.186;5.720;2023-09-19T12:22:21;99230.38;;;22.86;100.00
52975;BME280;38839;45.186;5.720;2023-09-19T12:24:47;99231.75;;;23.11;100.00
52975;BME280;38839;45.186;5.720;2023-09-19T12:27:13;99231.34;;;23.19;100.00
52975;BME280;38839;45.186;5.720;2023-09-19T12:29:47;99230.94;;;23.26;100.00
52975;BME280;38839;45.186;5.720;2023-09-19T12:32:16;99225.66;;;23.58;100.00
52975;BME280;38839;45.186;5.720;2023-09-19T12:34:53;99220.44;;;23.57;100.00
52975;BME280;38839;45.186;5.720;2023-09-19T12:37:19;99228.41;;;23.73;100.00
52975;BME280;38839;45.186;5.720;2023-09-19T12:39:50;99223.94;;;23.57;100.00
52975;BME280;38839;45.186;5.720;2023-09-19T12:42:21;99221.72;;;23.65;100.00
52975;BME280;38839;45.186;5.720;2023-09-19T12:44:49;99218.78;;;23.54;100.00
52975;BME280;38839;45.186;5.720;2023-09-19T12:47:20;99209.09;;;23.53;100.00
52975;BME280;38839;45.186;5.720;2023-09-19T12:52:47;99207.88;;;23.59;100.00
52975;BME280;38839;45.186;5.720;2023-09-19T12:55:24;99205.22;;;23.43;98.15
52975;BME280;38839;45.186;5.720;2023-09-19T12:58:14;99195.09;;;23.65;99.81
52975;BME280;38839;45.186;5.720;2023-09-19T13:00:45;99204.72;;;23.84;97.75
52975;BME280;38839;45.186;5.720;2023-09-19T13:03:15;99193.19;;;23.99;96.22
52975;BME280;38839;45.186;5.720;2023-09-19T13:06:02;99187.13;;;24.12;95.50
52975;BME280;38839;45.186;5.720;2023-09-19T13:08:36;99183.03;;;24.06;94.39
52975;BME280;38839;45.186;5.720;2023-09-19T13:11:09;99184.59;;;23.94;94.37
52975;BME280;38839;45.186;5.720;2023-09-19T13:13:36;99182.44;;;23.85;94.32
52975;BME280;38839;45.186;5.720;2023-09-19T13:16:03;99183.63;;;23.95;94.59
52975;BME280;38839;45.186;5.720;2023-09-19T13:18:48;99176.66;;;24.08;92.83
52975;BME280;38839;45.186;5.720;2023-09-19T13:21:16;99183.19;;;24.19;92.23
52975;BME280;38839;45.186;5.720;2023-09-19T13:23:53;99168.88;;;24.20;91.02
52975;BME280;38839;45.186;5.720;2023-09-19T13:26:26;99172.47;;;24.35;91.87
52975;BME280;38839;45.186;5.720;2023-09-19T13:28:53;99161.28;;;24.28;90.59
52975;BME280;38839;45.186;5.720;2023-09-19T13:31:19;99154.63;;;24.21;89.58
52975;BME280;38839;45.186;5.720;2023-09-19T13:33:48;99166.34;;;24.18;89.47
52975;BME280;38839;45.186;5.720;2023-09-19T13:36:14;99156.69;;;24.16;89.57
52975;BME280;38839;45.186;5.720;2023-09-19T13:38:41;99155.50;;;24.05;89.17
52975;BME280;38839;45.186;5.720;2023-09-19T13:41:10;99153.97;;;24.01;89.91
52975;BME280;38839;45.186;5.720;2023-09-19T13:43:36;99151.56;;;24.13;90.38
52975;BME280;38839;45.186;5.720;2023-09-19T13:46:02;99148.16;;;24.25;90.35
52975;BME280;38839;45.186;5.720;2023-09-19T13:48:28;99152.00;;;24.35;90.82
52975;BME280;38839;45.186;5.720;2023-09-19T13:50:55;99156.97;;;24.41;89.02
52975;BME280;38839;45.186;5.720;2023-09-19T13:53:21;99150.38;;;24.33;87.43
52975;BME280;38839;45.186;5.720;2023-09-19T13:55:47;99147.75;;;24.47;87.44
52975;BME280;38839;45.186;5.720;2023-09-19T13:58:14;99144.91;;;24.50;86.01
52975;BME280;38839;45.186;5.720;2023-09-19T14:00:39;99138.50;;;24.53;85.54